TimeCDT,TemperatureF,Dew PointF,Humidity,Sea Level PressureIn,VisibilityMPH,Wind Direction,Wind SpeedMPH,Gust SpeedMPH,PrecipitationIn,Events,Conditions,WindDirDegrees,DateUTC
12:58 AM,65.8,49.5,55,30.14,10.0,South,10.4,-,N/A,,Clear,170,2013-05-15 05:58:00
1:58 AM,58.6,50.4,74,30.13,10.0,SSE,9.2,-,N/A,,Clear,160,2013-05-15 06:58:00
2:58 AM,61.7,51.6,69,30.11,10.0,South,9.2,-,N/A,,Clear,180,2013-05-15 07:58:00
3:58 AM,57.9,51.6,80,30.13,10.0,SE,4.6,-,N/A,,Clear,140,2013-05-15 08:58:00
4:18 AM,57.2,53.6,88,30.12,10.0,SSE,5.8,-,N/A,,Mostly Cloudy,150,2013-05-15 09:18:00
4:58 AM,61.9,57.0,84,30.13,10.0,East,2.3,-,N/A,,Overcast,100,2013-05-15 09:58:00
5:58 AM,66.0,61.0,84,30.12,10.0,SSW,8.1,-,N/A,,Mostly Cloudy,200,2013-05-15 10:58:00
6:18 AM,66.2,60.8,83,30.11,10.0,South,10.4,-,N/A,,Scattered Clouds,190,2013-05-15 11:18:00
6:58 AM,65.7,61.7,87,30.12,10.0,SSW,10.4,-,N/A,,Clear,200,2013-05-15 11:58:00
7:58 AM,68.0,62.4,82,30.12,10.0,South,11.5,-,N/A,,Partly Cloudy,180,2013-05-15 12:58:00
8:58 AM,70.3,62.8,77,30.13,10.0,South,13.8,-,N/A,,Mostly Cloudy,180,2013-05-15 13:58:00
9:10 AM,71.6,62.6,73,30.11,10.0,SSW,10.4,-,N/A,,Mostly Cloudy,200,2013-05-15 14:10:00
9:18 AM,71.6,62.6,73,30.12,10.0,South,10.4,-,N/A,,Scattered Clouds,190,2013-05-15 14:18:00
9:30 AM,71.6,62.6,73,30.11,10.0,South,11.5,-,N/A,,Mostly Cloudy,190,2013-05-15 14:30:00
9:58 AM,72.3,62.1,70,30.13,10.0,South,15.0,-,N/A,,Mostly Cloudy,180,2013-05-15 14:58:00
10:27 AM,73.4,62.6,69,30.11,10.0,South,15.0,-,N/A,,Mostly Cloudy,170,2013-05-15 15:27:00
10:58 AM,75.9,62.6,63,30.11,10.0,South,13.8,20.7,N/A,,Clear,170,2013-05-15 15:58:00
11:56 AM,78.8,64.4,61,30.08,10.0,SSE,12.7,-,N/A,,Clear,160,2013-05-15 16:56:00
12:28 PM,78.8,62.6,57,30.07,10.0,SSW,13.8,-,N/A,,Partly Cloudy,200,2013-05-15 17:28:00
12:58 PM,78.3,62.8,59,30.07,10.0,SSW,15.0,20.7,N/A,,Partly Cloudy,200,2013-05-15 17:58:00
1:58 PM,76.6,60.8,58,30.07,10.0,South,13.8,-,N/A,,Mostly Cloudy,190,2013-05-15 18:58:00
2:10 PM,75.2,62.6,65,30.06,6.0,SSW,20.7,25.3,N/A,Rain,Light Rain,210,2013-05-15 19:10:00
2:32 PM,71.6,64.4,78,30.05,10.0,South,12.7,-,N/A,,Mostly Cloudy,190,2013-05-15 19:32:00
2:42 PM,71.6,62.6,73,30.05,10.0,South,13.8,21.9,N/A,Rain,Light Rain,190,2013-05-15 19:42:00
2:58 PM,71.6,64.6,78,30.05,10.0,South,12.7,-,0.02,Rain,Light Rain,190,2013-05-15 19:58:00
3:58 PM,70.0,65.1,85,30.03,10.0,South,12.7,-,0.02,Rain,Light Rain,180,2013-05-15 20:58:00
4:01 PM,69.8,64.4,83,30.01,10.0,South,13.8,-,N/A,Rain,Light Rain,180,2013-05-15 21:01:00
4:58 PM,69.1,66.7,92,30.00,10.0,SSE,12.7,-,0.07,Rain,Light Rain,160,2013-05-15 21:58:00
5:58 PM,68.0,64.4,88,29.99,10.0,South,16.1,-,0.03,Rain,Light Rain,180,2013-05-15 22:58:00
6:58 PM,66.7,62.4,86,29.98,6.0,NW,3.5,-,0.01,Rain,Light Rain,320,2013-05-15 23:58:00
7:13 PM,66.2,64.4,94,29.97,10.0,East,4.6,-,N/A,,Overcast,90,2013-05-16 00:13:00
7:30 PM,64.4,64.4,100,29.97,10.0,ENE,2.3,-,N/A,Thunderstorm,Overcast,70,2013-05-16 00:30:00
7:47 PM,66.2,66.2,100,29.97,10.0,NE,4.6,-,N/A,,Light Drizzle,40,2013-05-16 00:47:00
7:58 PM,66.0,64.9,96,29.98,7.0,ENE,6.9,-,0.01,Rain,Light Rain,60,2013-05-16 00:58:00
8:58 PM,64.9,63.1,94,29.98,10.0,SSE,5.8,-,0.03,,Mostly Cloudy,150,2013-05-16 01:58:00
9:58 PM,64.0,62.2,94,29.97,10.0,ESE,3.5,-,N/A,,Mostly Cloudy,110,2013-05-16 02:58:00
10:58 PM,64.6,62.4,93,29.97,10.0,ESE,9.2,-,N/A,,Mostly Cloudy,120,2013-05-16 03:58:00
11:48 PM,64.4,64.4,100,29.95,10.0,ESE,10.4,-,N/A,,Mostly Cloudy,120,2013-05-16 04:48:00
11:58 PM,65.1,63.7,95,29.96,10.0,ESE,10.4,-,N/A,,Mostly Cloudy,120,2013-05-16 04:58:00